sensor_id;sensor_type;location;lat;lon;timestamp;P1;durP1;ratioP1;P2;durP2;ratioP2
67554;SDS011;54385;53.516;49.456;2023-05-16T00:01:30;8.00;;;6.15;;
67554;SDS011;54385;53.516;49.456;2023-05-16T00:04:03;9.07;;;6.35;;
67554;SDS011;54385;53.516;49.456;2023-05-16T00:06:35;7.20;;;5.47;;
67554;SDS011;54385;53.516;49.456;2023-05-16T00:09:06;6.93;;;5.32;;
67554;SDS011;54385;53.516;49.456;2023-05-16T00:11:38;9.05;;;6.15;;
67554;SDS011;54385;53.516;49.456;2023-05-16T00:14:10;7.65;;;5.72;;
67554;SDS011;54385;53.516;49.456;2023-05-16T00:16:42;6.43;;;5.05;;
67554;SDS011;54385;53.516;49.456;2023-05-16T00:19:13;7.75;;;5.63;;
67554;SDS011;54385;53.516;49.456;2023-05-16T00:21:45;6.00;;;5.40;;
67554;SDS011;54385;53.516;49.456;2023-05-16T00:24:17;8.05;;;5.50;;
67554;SDS011;54385;53.516;49.456;2023-05-16T00:26:49;8.60;;;5.80;;
67554;SDS011;54385;53.516;49.456;2023-05-16T00:29:21;7.43;;;5.07;;
67554;SDS011;54385;53.516;49.456;2023-05-16T00:31:54;8.35;;;5.43;;
67554;SDS011;54385;53.516;49.456;2023-05-16T00:34:26;9.25;;;5.70;;
67554;SDS011;54385;53.516;49.456;2023-05-16T00:37:04;11.40;;;5.25;;
67554;SDS011;54385;53.516;49.456;2023-05-16T00:39:36;7.43;;;5.47;;
67554;SDS011;54385;53.516;49.456;2023-05-16T00:42:07;7.00;;;5.93;;
67554;SDS011;54385;53.516;49.456;2023-05-16T00:44:39;7.75;;;6.05;;
67554;SDS011;54385;53.516;49.456;2023-05-16T00:47:11;7.18;;;5.75;;
67554;SDS011;54385;53.516;49.456;2023-05-16T00:49:43;8.18;;;6.50;;
67554;SDS011;54385;53.516;49.456;2023-05-16T00:52:14;8.25;;;6.70;;
67554;SDS011;54385;53.516;49.456;2023-05-16T00:54:46;9.02;;;6.18;;
67554;SDS011;54385;53.516;49.456;2023-05-16T00:57:18;8.85;;;5.90;;
67554;SDS011;54385;53.516;49.456;2023-05-16T00:59:50;7.07;;;6.38;;
67554;SDS011;54385;53.516;49.456;2023-05-16T01:02:22;7.38;;;6.07;;
67554;SDS011;54385;53.516;49.456;2023-05-16T01:04:58;7.03;;;6.32;;
67554;SDS011;54385;53.516;49.456;2023-05-16T01:07:30;8.10;;;5.93;;
67554;SDS011;54385;53.516;49.456;2023-05-16T01:10:02;7.50;;;5.88;;
67554;SDS011;54385;53.516;49.456;2023-05-16T01:12:36;8.13;;;6.50;;
67554;SDS011;54385;53.516;49.456;2023-05-16T01:15:23;9.25;;;6.18;;
67554;SDS011;54385;53.516;49.456;2023-05-16T01:20:58;7.40;;;6.00;;
67554;SDS011;54385;53.516;49.456;2023-05-16T01:23:48;8.23;;;5.70;;
67554;SDS011;54385;53.516;49.456;2023-05-16T01:26:25;6.72;;;5.88;;
67554;SDS011;54385;53.516;49.456;2023-05-16T01:28:58;7.18;;;5.78;;
67554;SDS011;54385;53.516;49.456;2023-05-16T01:31:30;10.82;;;6.30;;
67554;SDS011;54385;53.516;49.456;2023-05-16T01:34:02;6.82;;;5.88;;
67554;SDS011;54385;53.516;49.456;2023-05-16T01:39:32;8.95;;;6.20;;
67554;SDS011;54385;53.516;49.456;2023-05-16T01:42:38;7.65;;;6.78;;
67554;SDS011;54385;53.516;49.456;2023-05-16T01:45:19;10.40;;;6.63;;
67554;SDS011;54385;53.516;49.456;2023-05-16T01:48:06;8.40;;;6.50;;
67554;SDS011;54385;53.516;49.456;2023-05-16T01:50:45;8.23;;;6.05;;
67554;SDS011;54385;53.516;49.456;2023-05-16T01:53:22;10.07;;;8.80;;
67554;SDS011;54385;53.516;49.456;2023-05-16T01:55:59;8.63;;;6.90;;
67554;SDS011;54385;53.516;49.456;2023-05-16T01:58:32;8.98;;;7.30;;
67554;SDS011;54385;53.516;49.456;2023-05-16T02:01:05;8.02;;;7.13;;
67554;SDS011;54385;53.516;49.456;2023-05-16T02:03:37;9.20;;;7.97;;
67554;SDS011;54385;53.516;49.456;2023-05-16T02:06:09;10.90;;;8.63;;
67554;SDS011;54385;53.516;49.456;2023-05-16T02:08:40;9.85;;;7.15;;
67554;SDS011;54385;53.516;49.456;2023-05-16T02:11:12;8.98;;;6.72;;
67554;SDS011;54385;53.516;49.456;2023-05-16T02:13:44;8.43;;;6.35;;
67554;SDS011;54385;53.516;49.456;2023-05-16T02:16:16;7.65;;;6.30;;
67554;SDS011;54385;53.516;49.456;2023-05-16T02:18:47;7.00;;;5.85;;
67554;SDS011;54385;53.516;49.456;2023-05-16T02:21:19;7.40;;;5.90;;
67554;SDS011;54385;53.516;49.456;2023-05-16T02:23:51;6.18;;;5.53;;
67554;SDS011;54385;53.516;49.456;2023-05-16T02:26:23;9.50;;;6.53;;
67554;SDS011;54385;53.516;49.456;2023-05-16T02:28:54;7.35;;;6.57;;
67554;SDS011;54385;53.516;49.456;2023-05-16T02:31:28;6.30;;;5.35;;
67554;SDS011;54385;53.516;49.456;2023-05-16T02:34:00;7.95;;;6.13;;
67554;SDS011;54385;53.516;49.456;2023-05-16T02:36:32;8.30;;;6.05;;
67554;SDS011;54385;53.516;49.456;2023-05-16T02:39:05;6.75;;;5.75;;
67554;SDS011;54385;53.516;49.456;2023-05-16T02:41:39;6.88;;;5.25;;
67554;SDS011;54385;53.516;49.456;2023-05-16T02:44:11;9.05;;;5.82;;
67554;SDS011;54385;53.516;49.456;2023-05-16T02:46:43;7.20;;;5.50;;
67554;SDS011;54385;53.516;49.456;2023-05-16T02:49:14;7.28;;;6.20;;
67554;SDS011;54385;53.516;49.456;2023-05-16T02:51:46;7.70;;;6.22;;
67554;SDS011;54385;53.516;49.456;2023-05-16T02:54:18;10.05;;;6.13;;
67554;SDS011;54385;53.516;49.456;2023-05-16T02:56:51;8.50;;;5.90;;
67554;SDS011;54385;53.516;49.456;2023-05-16T02:59:23;8.40;;;6.13;;
67554;SDS011;54385;53.516;49.456;2023-05-16T03:01:54;7.05;;;6.18;;
67554;SDS011;54385;53.516;49.456;2023-05-16T03:04:26;9.52;;;7.07;;
67554;SDS011;54385;53.516;49.456;2023-05-16T03:06:58;9.15;;;5.72;;
67554;SDS011;54385;53.516;49.456;2023-05-16T03:09:30;8.10;;;5.88;;
67554;SDS011;54385;53.516;49.456;2023-05-16T03:12:02;8.10;;;6.10;;
67554;SDS011;54385;53.516;49.456;2023-05-16T03:14:34;9.23;;;5.88;;
67554;SDS011;54385;53.516;49.456;2023-05-16T03:17:05;10.75;;;6.30;;
67554;SDS011;54385;53.516;49.456;2023-05-16T03:19:37;11.50;;;6.90;;
67554;SDS011;54385;53.516;49.456;2023-05-16T03:22:09;11.13;;;6.97;;
67554;SDS011;54385;53.516;49.456;2023-05-16T03:24:41;12.45;;;8.68;;
67554;SDS011;54385;53.516;49.456;2023-05-16T03:27:12;11.10;;;6.85;;
67554;SDS011;54385;53.516;49.456;2023-05-16T03:29:44;12.25;;;6.90;;
67554;SDS011;54385;53.516;49.456;2023-05-16T03:32:16;11.48;;;7.30;;
67554;SDS011;54385;53.516;49.456;2023-05-16T03:34:48;8.60;;;6.50;;
67554;SDS011;54385;53.516;49.456;2023-05-16T03:37:20;10.20;;;6.78;;
67554;SDS011;54385;53.516;49.456;2023-05-16T03:39:52;12.35;;;7.55;;
67554;SDS011;54385;53.516;49.456;2023-05-16T03:42:23;8.07;;;6.93;;
67554;SDS011;54385;53.516;49.456;2023-05-16T03:44:55;10.55;;;7.22;;
67554;SDS011;54385;53.516;49.456;2023-05-16T03:47:27;8.30;;;6.57;;
67554;SDS011;54385;53.516;49.456;2023-05-16T03:50:01;10.43;;;7.53;;
67554;SDS011;54385;53.516;49.456;2023-05-16T03:52:35;9.82;;;7.03;;
67554;SDS011;54385;53.516;49.456;2023-05-16T03:55:07;12.48;;;7.82;;
67554;SDS011;54385;53.516;49.456;2023-05-16T04:00:12;10.40;;;8.13;;
67554;SDS011;54385;53.516;49.456;2023-05-16T04:07:47;14.13;;;8.65;;
67554;SDS011;54385;53.516;49.456;2023-05-16T04:10:19;16.65;;;8.65;;
67554;SDS011;54385;53.516;49.456;2023-05-16T04:12:51;10.65;;;8.02;;
67554;SDS011;54385;53.516;49.456;2023-05-16T04:15:23;11.88;;;7.93;;
67554;SDS011;54385;53.516;49.456;2023-05-16T04:17:55;12.00;;;8.27;;
67554;SDS011;54385;53.516;49.456;2023-05-16T04:20:26;12.77;;;9.00;;
67554;SDS011;54385;53.516;49.456;2023-05-16T04:22:58;19.60;;;8.18;;
67554;SDS011;54385;53.516;49.456;2023-05-16T04:25:30;11.68;;;8.10;;
67554;SDS011;54385;53.516;49.456;2023-05-16T04:28:02;20.42;;;8.55;;
67554;SDS011;54385;53.516;49.456;2023-05-16T04:30:34;9.63;;;7.03;;
67554;SDS011;54385;53.516;49.456;2023-05-16T04:33:06;8.38;;;7.22;;
67554;SDS011;54385;53.516;49.456;2023-05-16T04:35:38;11.80;;;7.13;;
67554;SDS011;54385;53.516;49.456;2023-05-16T04:38:10;12.60;;;7.85;;
67554;SDS011;54385;53.516;49.456;2023-05-16T04:40:41;11.40;;;7.53;;
67554;SDS011;54385;53.516;49.456;2023-05-16T04:45:45;9.73;;;7.90;;
67554;SDS011;54385;53.516;49.456;2023-05-16T04:48:18;11.45;;;9.00;;
67554;SDS011;54385;53.516;49.456;2023-05-16T04:50:50;11.52;;;8.65;;
67554;SDS011;54385;53.516;49.456;2023-05-16T04:53:22;17.83;;;10.20;;
67554;SDS011;54385;53.516;49.456;2023-05-16T04:55:59;15.27;;;9.77;;
67554;SDS011;54385;53.516;49.456;2023-05-16T04:58:31;12.00;;;9.02;;
67554;SDS011;54385;53.516;49.456;2023-05-16T05:01:04;11.82;;;8.35;;
67554;SDS011;54385;53.516;49.456;2023-05-16T05:03:36;12.20;;;8.60;;
67554;SDS011;54385;53.516;49.456;2023-05-16T05:06:08;10.82;;;8.55;;
67554;SDS011;54385;53.516;49.456;2023-05-16T05:08:40;12.48;;;9.10;;
67554;SDS011;54385;53.516;49.456;2023-05-16T05:11:12;13.00;;;8.68;;
67554;SDS011;54385;53.516;49.456;2023-05-16T05:13:43;12.13;;;9.13;;
67554;SDS011;54385;53.516;49.456;2023-05-16T05:16:15;12.68;;;9.63;;
67554;SDS011;54385;53.516;49.456;2023-05-16T05:18:47;12.95;;;9.63;;
67554;SDS011;54385;53.516;49.456;2023-05-16T05:21:19;11.55;;;9.40;;
67554;SDS011;54385;53.516;49.456;2023-05-16T05:23:52;16.00;;;8.85;;
67554;SDS011;54385;53.516;49.456;2023-05-16T05:26:24;11.38;;;8.43;;
67554;SDS011;54385;53.516;49.456;2023-05-16T05:28:56;13.68;;;8.63;;
67554;SDS011;54385;53.516;49.456;2023-05-16T05:31:28;15.27;;;8.73;;
67554;SDS011;54385;53.516;49.456;2023-05-16T05:33:59;10.75;;;8.50;;
67554;SDS011;54385;53.516;49.456;2023-05-16T05:36:31;13.52;;;9.35;;
67554;SDS011;54385;53.516;49.456;2023-05-16T05:39:04;20.92;;;9.00;;
67554;SDS011;54385;53.516;49.456;2023-05-16T05:44:08;16.08;;;9.13;;
67554;SDS011;54385;53.516;49.456;2023-05-16T05:46:40;13.02;;;9.20;;
67554;SDS011;54385;53.516;49.456;2023-05-16T05:49:12;13.48;;;9.85;;
67554;SDS011;54385;53.516;49.456;2023-05-16T05:51:47;13.98;;;9.68;;
67554;SDS011;54385;53.516;49.456;2023-05-16T05:54:22;15.55;;;10.57;;
67554;SDS011;54385;53.516;49.456;2023-05-16T05:59:27;22.90;;;12.15;;
67554;SDS011;54385;53.516;49.456;2023-05-16T06:01:58;15.35;;;10.98;;
67554;SDS011;54385;53.516;49.456;2023-05-16T06:04:30;21.13;;;11.13;;
67554;SDS011;54385;53.516;49.456;2023-05-16T06:07:02;20.15;;;11.65;;
67554;SDS011;54385;53.516;49.456;2023-05-16T06:09:34;21.55;;;13.77;;
67554;SDS011;54385;53.516;49.456;2023-05-16T06:12:06;24.00;;;13.90;;
67554;SDS011;54385;53.516;49.456;2023-05-16T06:14:38;24.38;;;14.25;;
67554;SDS011;54385;53.516;49.456;2023-05-16T06:17:14;25.77;;;14.88;;
67554;SDS011;54385;53.516;49.456;2023-05-16T06:19:46;27.38;;;14.85;;
67554;SDS011;54385;53.516;49.456;2023-05-16T06:22:18;25.75;;;15.75;;
67554;SDS011;54385;53.516;49.456;2023-05-16T06:24:50;22.38;;;14.30;;
67554;SDS011;54385;53.516;49.456;2023-05-16T06:27:21;21.60;;;14.23;;
67554;SDS011;54385;53.516;49.456;2023-05-16T06:29:56;28.13;;;14.77;;
67554;SDS011;54385;53.516;49.456;2023-05-16T06:32:28;22.48;;;13.80;;
67554;SDS011;54385;53.516;49.456;2023-05-16T06:35:01;25.42;;;13.88;;
67554;SDS011;54385;53.516;49.456;2023-05-16T06:37:33;37.58;;;18.35;;
67554;SDS011;54385;53.516;49.456;2023-05-16T06:40:04;27.23;;;14.68;;
67554;SDS011;54385;53.516;49.456;2023-05-16T06:42:37;20.35;;;13.27;;
67554;SDS011;54385;53.516;49.456;2023-05-16T06:45:09;25.92;;;15.05;;
67554;SDS011;54385;53.516;49.456;2023-05-16T06:47:41;21.48;;;15.32;;
67554;SDS011;54385;53.516;49.456;2023-05-16T06:50:12;63.22;;;21.77;;
67554;SDS011;54385;53.516;49.456;2023-05-16T06:52:44;30.00;;;17.48;;
67554;SDS011;54385;53.516;49.456;2023-05-16T06:55:16;26.00;;;16.27;;
67554;SDS011;54385;53.516;49.456;2023-05-16T06:57:47;21.08;;;14.52;;
67554;SDS011;54385;53.516;49.456;2023-05-16T07:00:19;25.63;;;16.13;;
67554;SDS011;54385;53.516;49.456;2023-05-16T07:05:23;20.52;;;13.63;;
67554;SDS011;54385;53.516;49.456;2023-05-16T07:07:55;20.35;;;14.52;;
67554;SDS011;54385;53.516;49.456;2023-05-16T07:10:27;21.25;;;15.55;;
67554;SDS011;54385;53.516;49.456;2023-05-16T07:12:59;18.42;;;14.93;;
67554;SDS011;54385;53.516;49.456;2023-05-16T07:15:31;27.33;;;15.30;;
67554;SDS011;54385;53.516;49.456;2023-05-16T07:18:03;20.20;;;13.60;;
67554;SDS011;54385;53.516;49.456;2023-05-16T07:20:36;27.63;;;13.65;;
67554;SDS011;54385;53.516;49.456;2023-05-16T07:23:08;18.05;;;13.13;;
67554;SDS011;54385;53.516;49.456;2023-05-16T07:25:40;21.20;;;13.43;;
67554;SDS011;54385;53.516;49.456;2023-05-16T07:28:12;19.65;;;14.50;;
67554;SDS011;54385;53.516;49.456;2023-05-16T07:30:43;20.33;;;13.18;;
67554;SDS011;54385;53.516;49.456;2023-05-16T07:33:16;17.88;;;13.55;;
67554;SDS011;54385;53.516;49.456;2023-05-16T07:35:47;19.05;;;13.63;;
67554;SDS011;54385;53.516;49.456;2023-05-16T07:38:20;19.30;;;13.10;;
67554;SDS011;54385;53.516;49.456;2023-05-16T07:40:52;19.00;;;14.35;;
67554;SDS011;54385;53.516;49.456;2023-05-16T07:43:24;23.27;;;13.85;;
67554;SDS011;54385;53.516;49.456;2023-05-16T07:45:56;20.73;;;14.57;;
67554;SDS011;54385;53.516;49.456;2023-05-16T07:48:28;23.67;;;14.45;;
67554;SDS011;54385;53.516;49.456;2023-05-16T07:51:00;22.67;;;14.68;;
67554;SDS011;54385;53.516;49.456;2023-05-16T07:53:32;20.23;;;14.73;;
67554;SDS011;54385;53.516;49.456;2023-05-16T07:56:04;18.80;;;13.52;;
67554;SDS011;54385;53.516;49.456;2023-05-16T07:58:36;21.27;;;13.63;;
67554;SDS011;54385;53.516;49.456;2023-05-16T08:03:40;22.08;;;11.38;;
67554;SDS011;54385;53.516;49.456;2023-05-16T08:06:12;25.20;;;12.38;;
67554;SDS011;54385;53.516;49.456;2023-05-16T08:08:44;16.67;;;12.05;;
67554;SDS011;54385;53.516;49.456;2023-05-16T08:11:17;17.00;;;11.85;;
67554;SDS011;54385;53.516;49.456;2023-05-16T08:13:52;20.38;;;11.85;;
67554;SDS011;54385;53.516;49.456;2023-05-16T08:16:24;16.90;;;11.57;;
67554;SDS011;54385;53.516;49.456;2023-05-16T08:18:56;21.73;;;11.63;;
67554;SDS011;54385;53.516;49.456;2023-05-16T08:21:28;17.70;;;12.68;;
67554;SDS011;54385;53.516;49.456;2023-05-16T08:24:01;27.02;;;12.80;;
67554;SDS011;54385;53.516;49.456;2023-05-16T08:26:35;17.42;;;13.10;;
67554;SDS011;54385;53.516;49.456;2023-05-16T08:29:07;15.00;;;11.43;;
67554;SDS011;54385;53.516;49.456;2023-05-16T08:31:39;19.60;;;12.55;;
67554;SDS011;54385;53.516;49.456;2023-05-16T08:34:10;18.55;;;13.00;;
67554;SDS011;54385;53.516;49.456;2023-05-16T08:36:42;14.38;;;11.93;;
67554;SDS011;54385;53.516;49.456;2023-05-16T08:39:14;16.58;;;12.43;;
67554;SDS011;54385;53.516;49.456;2023-05-16T08:41:46;15.98;;;11.45;;
67554;SDS011;54385;53.516;49.456;2023-05-16T08:44:18;22.77;;;12.77;;
67554;SDS011;54385;53.516;49.456;2023-05-16T08:46:52;16.17;;;12.40;;
67554;SDS011;54385;53.516;49.456;2023-05-16T08:49:27;17.17;;;12.63;;
67554;SDS011;54385;53.516;49.456;2023-05-16T08:52:01;17.10;;;13.05;;
67554;SDS011;54385;53.516;49.456;2023-05-16T08:54:36;21.83;;;13.77;;
67554;SDS011;54385;53.516;49.456;2023-05-16T08:57:09;18.83;;;13.15;;
67554;SDS011;54385;53.516;49.456;2023-05-16T08:59:41;19.75;;;13.20;;
67554;SDS011;54385;53.516;49.456;2023-05-16T09:02:13;19.33;;;13.68;;
67554;SDS011;54385;53.516;49.456;2023-05-16T09:04:46;16.10;;;13.43;;
67554;SDS011;54385;53.516;49.456;2023-05-16T09:07:19;27.30;;;13.98;;
67554;SDS011;54385;53.516;49.456;2023-05-16T09:09:56;28.00;;;15.50;;
67554;SDS011;54385;53.516;49.456;2023-05-16T09:12:33;20.85;;;14.05;;
67554;SDS011;54385;53.516;49.456;2023-05-16T09:15:08;20.58;;;14.73;;
67554;SDS011;54385;53.516;49.456;2023-05-16T09:17:44;19.05;;;14.23;;
67554;SDS011;54385;53.516;49.456;2023-05-16T09:20:17;26.08;;;14.43;;
67554;SDS011;54385;53.516;49.456;2023-05-16T09:22:51;18.27;;;13.13;;
67554;SDS011;54385;53.516;49.456;2023-05-16T09:25:25;24.73;;;15.32;;
67554;SDS011;54385;53.516;49.456;2023-05-16T09:27:59;21.98;;;15.57;;
67554;SDS011;54385;53.516;49.456;2023-05-16T09:30:32;19.48;;;15.00;;
67554;SDS011;54385;53.516;49.456;2023-05-16T09:33:05;19.63;;;14.70;;
67554;SDS011;54385;53.516;49.456;2023-05-16T09:35:37;22.20;;;15.23;;
67554;SDS011;54385;53.516;49.456;2023-05-16T09:38:13;22.65;;;15.35;;
67554;SDS011;54385;53.516;49.456;2023-05-16T09:40:46;23.35;;;16.15;;
67554;SDS011;54385;53.516;49.456;2023-05-16T09:43:19;31.95;;;16.58;;
67554;SDS011;54385;53.516;49.456;2023-05-16T09:45:53;31.25;;;16.70;;
67554;SDS011;54385;53.516;49.456;2023-05-16T09:48:30;30.88;;;15.45;;
67554;SDS011;54385;53.516;49.456;2023-05-16T09:51:05;22.80;;;15.73;;
67554;SDS011;54385;53.516;49.456;2023-05-16T09:53:37;31.25;;;16.92;;
67554;SDS011;54385;53.516;49.456;2023-05-16T09:56:10;27.90;;;16.48;;
67554;SDS011;54385;53.516;49.456;2023-05-16T09:58:43;25.98;;;17.23;;
67554;SDS011;54385;53.516;49.456;2023-05-16T10:01:17;27.70;;;16.45;;
67554;SDS011;54385;53.516;49.456;2023-05-16T10:06:20;21.05;;;12.13;;
67554;SDS011;54385;53.516;49.456;2023-05-16T10:11:24;15.95;;;11.80;;
67554;SDS011;54385;53.516;49.456;2023-05-16T10:16:28;19.15;;;14.10;;
67554;SDS011;54385;53.516;49.456;2023-05-16T10:19:01;25.33;;;15.10;;
67554;SDS011;54385;53.516;49.456;2023-05-16T10:21:33;21.92;;;15.93;;
67554;SDS011;54385;53.516;49.456;2023-05-16T10:24:08;19.20;;;13.55;;
67554;SDS011;54385;53.516;49.456;2023-05-16T10:26:41;22.90;;;13.50;;
67554;SDS011;54385;53.516;49.456;2023-05-16T10:29:13;14.80;;;11.20;;
67554;SDS011;54385;53.516;49.456;2023-05-16T10:34:18;18.80;;;12.60;;
67554;SDS011;54385;53.516;49.456;2023-05-16T10:36:50;17.02;;;13.00;;
67554;SDS011;54385;53.516;49.456;2023-05-16T10:39:23;15.85;;;14.15;;
67554;SDS011;54385;53.516;49.456;2023-05-16T10:41:56;19.25;;;14.10;;
67554;SDS011;54385;53.516;49.456;2023-05-16T10:44:31;18.13;;;15.35;;
67554;SDS011;54385;53.516;49.456;2023-05-16T10:47:04;21.45;;;16.65;;
67554;SDS011;54385;53.516;49.456;2023-05-16T10:49:38;19.60;;;14.27;;
67554;SDS011;54385;53.516;49.456;2023-05-16T10:52:11;22.90;;;15.73;;
67554;SDS011;54385;53.516;49.456;2023-05-16T10:54:49;23.95;;;17.58;;
67554;SDS011;54385;53.516;49.456;2023-05-16T10:57:22;22.35;;;13.07;;
67554;SDS011;54385;53.516;49.456;2023-05-16T10:59:54;16.08;;;11.00;;
67554;SDS011;54385;53.516;49.456;2023-05-16T11:02:32;13.07;;;9.52;;
67554;SDS011;54385;53.516;49.456;2023-05-16T11:05:12;11.77;;;9.63;;
67554;SDS011;54385;53.516;49.456;2023-05-16T11:07:48;19.42;;;14.20;;
67554;SDS011;54385;53.516;49.456;2023-05-16T11:10:34;20.55;;;15.68;;
67554;SDS011;54385;53.516;49.456;2023-05-16T11:13:06;18.60;;;14.90;;
67554;SDS011;54385;53.516;49.456;2023-05-16T11:15:41;25.13;;;17.35;;
67554;SDS011;54385;53.516;49.456;2023-05-16T11:18:14;19.98;;;16.48;;
67554;SDS011;54385;53.516;49.456;2023-05-16T11:20:46;20.90;;;16.33;;
67554;SDS011;54385;53.516;49.456;2023-05-16T11:23:23;20.73;;;16.00;;
67554;SDS011;54385;53.516;49.456;2023-05-16T11:25:56;18.55;;;14.85;;
67554;SDS011;54385;53.516;49.456;2023-05-16T11:28:31;23.60;;;17.73;;
67554;SDS011;54385;53.516;49.456;2023-05-16T11:31:03;30.73;;;18.48;;
67554;SDS011;54385;53.516;49.456;2023-05-16T11:33:35;28.85;;;18.65;;
67554;SDS011;54385;53.516;49.456;2023-05-16T11:36:11;30.80;;;19.02;;
67554;SDS011;54385;53.516;49.456;2023-05-16T11:38:42;27.45;;;19.63;;
67554;SDS011;54385;53.516;49.456;2023-05-16T11:41:14;21.98;;;17.15;;
67554;SDS011;54385;53.516;49.456;2023-05-16T11:43:47;27.05;;;17.70;;
67554;SDS011;54385;53.516;49.456;2023-05-16T11:46:19;27.30;;;19.25;;
67554;SDS011;54385;53.516;49.456;2023-05-16T11:48:51;35.92;;;19.98;;
67554;SDS011;54385;53.516;49.456;2023-05-16T11:51:23;27.10;;;19.10;;
67554;SDS011;54385;53.516;49.456;2023-05-16T11:53:55;21.80;;;16.33;;
67554;SDS011;54385;53.516;49.456;2023-05-16T11:56:27;21.58;;;18.15;;
67554;SDS011;54385;53.516;49.456;2023-05-16T11:58:59;28.05;;;18.58;;
67554;SDS011;54385;53.516;49.456;2023-05-16T12:01:35;21.38;;;17.98;;
67554;SDS011;54385;53.516;49.456;2023-05-16T12:04:11;28.20;;;18.92;;
67554;SDS011;54385;53.516;49.456;2023-05-16T12:06:44;23.23;;;18.23;;
67554;SDS011;54385;53.516;49.456;2023-05-16T12:09:29;21.27;;;16.05;;
67554;SDS011;54385;53.516;49.456;2023-05-16T12:12:02;23.20;;;16.85;;
67554;SDS011;54385;53.516;49.456;2023-05-16T12:14:35;23.00;;;16.83;;
67554;SDS011;54385;53.516;49.456;2023-05-16T12:19:38;21.40;;;17.08;;
67554;SDS011;54385;53.516;49.456;2023-05-16T12:22:19;23.55;;;16.15;;
67554;SDS011;54385;53.516;49.456;2023-05-16T12:24:51;23.65;;;17.63;;
67554;SDS011;54385;53.516;49.456;2023-05-16T12:29:56;21.60;;;16.60;;
67554;SDS011;54385;53.516;49.456;2023-05-16T12:32:28;20.08;;;16.05;;
67554;SDS011;54385;53.516;49.456;2023-05-16T12:35:00;28.35;;;17.00;;
67554;SDS011;54385;53.516;49.456;2023-05-16T12:37:32;31.20;;;18.00;;
67554;SDS011;54385;53.516;49.456;2023-05-16T12:40:05;22.40;;;16.25;;
67554;SDS011;54385;53.516;49.456;2023-05-16T12:42:42;23.50;;;18.13;;
67554;SDS011;54385;53.516;49.456;2023-05-16T12:45:15;22.15;;;17.25;;
67554;SDS011;54385;53.516;49.456;2023-05-16T12:47:48;22.80;;;19.05;;
67554;SDS011;54385;53.516;49.456;2023-05-16T12:50:20;23.70;;;17.38;;
67554;SDS011;54385;53.516;49.456;2023-05-16T12:52:53;33.35;;;18.40;;
67554;SDS011;54385;53.516;49.456;2023-05-16T12:55:28;30.55;;;16.40;;
67554;SDS011;54385;53.516;49.456;2023-05-16T12:58:00;36.88;;;15.52;;
67554;SDS011;54385;53.516;49.456;2023-05-16T13:03:04;21.35;;;13.98;;
67554;SDS011;54385;53.516;49.456;2023-05-16T13:05:37;27.00;;;15.10;;
67554;SDS011;54385;53.516;49.456;2023-05-16T13:08:09;23.48;;;14.02;;
67554;SDS011;54385;53.516;49.456;2023-05-16T13:10:40;34.58;;;15.57;;
67554;SDS011;54385;53.516;49.456;2023-05-16T13:13:15;24.45;;;14.70;;
67554;SDS011;54385;53.516;49.456;2023-05-16T13:15:48;14.55;;;11.85;;
67554;SDS011;54385;53.516;49.456;2023-05-16T13:18:20;13.60;;;11.38;;
67554;SDS011;54385;53.516;49.456;2023-05-16T13:20:52;13.15;;;10.93;;
67554;SDS011;54385;53.516;49.456;2023-05-16T13:23:24;15.18;;;10.90;;
67554;SDS011;54385;53.516;49.456;2023-05-16T13:25:57;13.52;;;11.02;;
67554;SDS011;54385;53.516;49.456;2023-05-16T13:28:29;14.10;;;10.07;;
67554;SDS011;54385;53.516;49.456;2023-05-16T13:31:02;15.00;;;10.02;;
67554;SDS011;54385;53.516;49.456;2023-05-16T13:33:34;14.75;;;10.80;;
67554;SDS011;54385;53.516;49.456;2023-05-16T13:36:07;14.23;;;10.95;;
67554;SDS011;54385;53.516;49.456;2023-05-16T13:38:39;16.90;;;9.68;;
67554;SDS011;54385;53.516;49.456;2023-05-16T13:41:14;17.50;;;10.77;;
67554;SDS011;54385;53.516;49.456;2023-05-16T13:43:45;16.73;;;10.15;;
67554;SDS011;54385;53.516;49.456;2023-05-16T13:48:49;14.10;;;9.85;;
67554;SDS011;54385;53.516;49.456;2023-05-16T13:51:20;12.43;;;9.77;;
67554;SDS011;54385;53.516;49.456;2023-05-16T13:53:54;15.50;;;10.63;;
67554;SDS011;54385;53.516;49.456;2023-05-16T13:56:27;12.55;;;10.57;;
67554;SDS011;54385;53.516;49.456;2023-05-16T13:58:59;13.93;;;10.55;;
67554;SDS011;54385;53.516;49.456;2023-05-16T14:01:31;13.57;;;11.40;;
67554;SDS011;54385;53.516;49.456;2023-05-16T14:04:02;13.43;;;10.60;;
67554;SDS011;54385;53.516;49.456;2023-05-16T14:09:06;15.75;;;11.32;;
67554;SDS011;54385;53.516;49.456;2023-05-16T14:11:38;14.10;;;11.55;;
67554;SDS011;54385;53.516;49.456;2023-05-16T14:14:09;15.75;;;11.60;;
67554;SDS011;54385;53.516;49.456;2023-05-16T14:16:41;16.15;;;11.68;;
67554;SDS011;54385;53.516;49.456;2023-05-16T14:19:15;14.82;;;12.27;;
67554;SDS011;54385;53.516;49.456;2023-05-16T14:21:47;14.90;;;12.45;;
67554;SDS011;54385;53.516;49.456;2023-05-16T14:24:19;21.92;;;14.43;;
67554;SDS011;54385;53.516;49.456;2023-05-16T14:26:51;18.30;;;14.32;;
67554;SDS011;54385;53.516;49.456;2023-05-16T14:29:25;19.33;;;14.60;;
67554;SDS011;54385;53.516;49.456;2023-05-16T14:31:56;19.77;;;14.73;;
67554;SDS011;54385;53.516;49.456;2023-05-16T14:34:28;18.85;;;16.40;;
67554;SDS011;54385;53.516;49.456;2023-05-16T14:37:00;25.90;;;16.23;;
67554;SDS011;54385;53.516;49.456;2023-05-16T14:39:31;20.65;;;17.00;;
67554;SDS011;54385;53.516;49.456;2023-05-16T14:42:03;25.20;;;14.52;;
67554;SDS011;54385;53.516;49.456;2023-05-16T14:44:35;27.60;;;15.82;;
67554;SDS011;54385;53.516;49.456;2023-05-16T14:47:07;19.83;;;15.70;;
67554;SDS011;54385;53.516;49.456;2023-05-16T14:49:39;20.52;;;15.93;;
67554;SDS011;54385;53.516;49.456;2023-05-16T14:52:11;25.35;;;16.85;;
67554;SDS011;54385;53.516;49.456;2023-05-16T14:54:42;25.17;;;17.05;;
67554;SDS011;54385;53.516;49.456;2023-05-16T14:57:14;21.73;;;16.52;;
67554;SDS011;54385;53.516;49.456;2023-05-16T14:59:45;26.30;;;17.40;;
67554;SDS011;54385;53.516;49.456;2023-05-16T15:02:18;21.23;;;16.02;;
67554;SDS011;54385;53.516;49.456;2023-05-16T15:04:50;22.48;;;17.30;;
67554;SDS011;54385;53.516;49.456;2023-05-16T15:07:21;21.48;;;16.88;;
67554;SDS011;54385;53.516;49.456;2023-05-16T15:09:53;20.25;;;16.17;;
67554;SDS011;54385;53.516;49.456;2023-05-16T15:14:56;21.45;;;16.42;;
67554;SDS011;54385;53.516;49.456;2023-05-16T15:17:28;25.92;;;18.23;;
67554;SDS011;54385;53.516;49.456;2023-05-16T15:20:02;26.00;;;18.98;;
67554;SDS011;54385;53.516;49.456;2023-05-16T15:22:39;25.45;;;18.15;;
67554;SDS011;54385;53.516;49.456;2023-05-16T15:25:11;21.08;;;16.65;;
67554;SDS011;54385;53.516;49.456;2023-05-16T15:27:43;26.55;;;18.92;;
67554;SDS011;54385;53.516;49.456;2023-05-16T15:30:15;23.33;;;17.27;;
67554;SDS011;54385;53.516;49.456;2023-05-16T15:32:47;21.50;;;17.13;;
67554;SDS011;54385;53.516;49.456;2023-05-16T15:35:19;21.60;;;17.77;;
67554;SDS011;54385;53.516;49.456;2023-05-16T15:37:50;22.95;;;17.08;;
67554;SDS011;54385;53.516;49.456;2023-05-16T15:40:22;25.35;;;17.05;;